createdAt,value
2023-03-31T00:01:27.010Z,11.10
2023-03-31T00:04:05.459Z,11.00
2023-03-31T00:06:38.082Z,11.00
2023-03-31T00:09:06.365Z,11.00
2023-03-31T00:11:35.749Z,11.00
2023-03-31T00:14:03.684Z,11.00
2023-03-31T00:16:31.580Z,10.90
2023-03-31T00:19:01.850Z,10.80
2023-03-31T00:21:33.824Z,10.90
2023-03-31T00:24:04.011Z,10.90
2023-03-31T00:26:32.519Z,10.90
2023-03-31T00:29:02.263Z,10.90
2023-03-31T00:31:30.567Z,10.90
2023-03-31T00:33:59.115Z,10.90
2023-03-31T00:36:28.663Z,10.90
2023-03-31T00:38:59.108Z,10.90
2023-03-31T00:41:28.759Z,10.90
2023-03-31T00:44:09.124Z,10.90
2023-03-31T00:46:43.258Z,10.90
2023-03-31T00:49:18.026Z,10.90
2023-03-31T00:51:46.755Z,10.90
2023-03-31T00:54:15.317Z,10.90
2023-03-31T00:56:48.374Z,11.00
2023-03-31T00:59:18.694Z,11.00
2023-03-31T01:01:50.499Z,10.90
2023-03-31T01:04:22.434Z,10.90
2023-03-31T01:07:00.824Z,10.90
2023-03-31T01:09:34.983Z,10.90
2023-03-31T01:12:05.702Z,10.90
2023-03-31T01:14:35.614Z,10.80
2023-03-31T01:17:05.264Z,10.80
2023-03-31T01:19:52.846Z,10.80
2023-03-31T01:23:03.136Z,10.80
2023-03-31T01:26:20.620Z,10.80
2023-03-31T01:28:57.123Z,10.90
2023-03-31T01:31:53.214Z,10.90
2023-03-31T01:35:02.345Z,10.80
2023-03-31T01:38:03.052Z,10.80
2023-03-31T01:40:51.487Z,10.80
2023-03-31T01:43:24.299Z,10.80
2023-03-31T01:45:57.885Z,10.80
2023-03-31T01:48:36.724Z,10.80
2023-03-31T01:51:08.439Z,10.80
2023-03-31T01:53:45.738Z,10.80
2023-03-31T01:56:21.155Z,10.80
2023-03-31T01:58:54.245Z,10.80
2023-03-31T02:01:26.356Z,10.80
2023-03-31T02:03:57.752Z,10.80
2023-03-31T02:06:31.905Z,10.80
2023-03-31T02:09:03.654Z,10.80
2023-03-31T02:11:34.978Z,10.90
2023-03-31T02:14:09.316Z,10.90
2023-03-31T02:16:41.750Z,10.90
2023-03-31T02:19:13.972Z,11.00
2023-03-31T02:21:42.412Z,11.00
2023-03-31T02:24:14.935Z,10.90
2023-03-31T02:26:51.037Z,10.90
2023-03-31T02:29:19.677Z,11.00
2023-03-31T02:31:50.585Z,11.00
2023-03-31T02:34:18.807Z,11.00
2023-03-31T02:36:47.379Z,11.00
2023-03-31T02:39:20.140Z,11.00
2023-03-31T02:41:49.388Z,11.00
2023-03-31T02:44:18.544Z,11.00
2023-03-31T02:46:47.912Z,11.00
2023-03-31T02:49:18.066Z,11.00
2023-03-31T02:52:04.591Z,11.00
2023-03-31T02:54:58.052Z,11.10
2023-03-31T02:57:51.707Z,11.00
2023-03-31T03:00:28.261Z,11.10
2023-03-31T03:03:07.956Z,11.00
2023-03-31T03:05:45.691Z,11.00
2023-03-31T03:08:44.280Z,10.90
2023-03-31T03:11:19.497Z,10.90
2023-03-31T03:13:53.678Z,10.90
2023-03-31T03:16:25.618Z,10.90
2023-03-31T03:18:59.418Z,10.90
2023-03-31T03:21:27.990Z,10.90
2023-03-31T03:23:55.833Z,10.90
2023-03-31T03:26:27.945Z,10.90
2023-03-31T03:28:58.138Z,10.90
2023-03-31T03:31:26.566Z,10.90
2023-03-31T03:33:54.830Z,10.80
2023-03-31T03:36:23.706Z,10.80
2023-03-31T03:38:51.670Z,10.80
2023-03-31T03:41:19.561Z,10.80
2023-03-31T03:43:47.348Z,10.70
2023-03-31T03:46:16.562Z,10.70
2023-03-31T03:48:44.444Z,10.70
2023-03-31T03:51:12.251Z,10.70
2023-03-31T03:53:40.096Z,10.70
2023-03-31T03:56:08.246Z,10.70
2023-03-31T03:58:36.508Z,10.80
2023-03-31T04:01:04.724Z,10.70
2023-03-31T04:03:34.004Z,10.70
2023-03-31T04:06:01.940Z,10.70
2023-03-31T04:08:29.849Z,10.70
2023-03-31T04:10:57.762Z,10.60
2023-03-31T04:13:25.857Z,10.60
2023-03-31T04:15:53.805Z,10.70
2023-03-31T04:18:23.693Z,10.60
2023-03-31T04:21:04.019Z,10.60
2023-03-31T04:23:32.392Z,10.60
2023-03-31T04:26:00.790Z,10.50
2023-03-31T04:28:34.583Z,10.50
2023-03-31T04:31:06.140Z,10.50
2023-03-31T04:33:38.567Z,10.50
2023-03-31T04:36:17.560Z,10.50
2023-03-31T04:38:46.710Z,10.50
2023-03-31T04:41:14.568Z,10.50
2023-03-31T04:43:42.878Z,10.50
2023-03-31T04:46:10.830Z,10.50
2023-03-31T04:48:39.849Z,10.50
2023-03-31T04:51:10.540Z,10.50
2023-03-31T04:53:38.404Z,10.40
2023-03-31T04:56:07.643Z,10.50
2023-03-31T04:58:36.054Z,10.50
2023-03-31T05:01:06.414Z,10.50
2023-03-31T05:03:34.723Z,10.50
2023-03-31T05:06:02.737Z,10.60
2023-03-31T05:08:32.022Z,10.50
2023-03-31T05:10:59.883Z,10.60
2023-03-31T05:13:27.693Z,10.50
2023-03-31T05:15:55.780Z,10.50
2023-03-31T05:18:23.585Z,10.50
2023-03-31T05:20:51.537Z,10.60
2023-03-31T05:23:19.316Z,10.70
2023-03-31T05:25:50.029Z,10.70
2023-03-31T05:28:17.885Z,10.70
2023-03-31T05:30:45.720Z,10.70
2023-03-31T05:33:13.775Z,10.80
2023-03-31T05:35:41.676Z,10.80
2023-03-31T05:38:09.558Z,10.80
2023-03-31T05:40:37.493Z,10.90
2023-03-31T05:43:06.659Z,10.90
2023-03-31T05:45:34.876Z,10.90
2023-03-31T05:48:02.991Z,10.90
2023-03-31T05:50:30.907Z,10.90
2023-03-31T05:52:59.695Z,10.90
2023-03-31T05:55:27.589Z,10.90
2023-03-31T05:57:55.521Z,10.90
2023-03-31T06:00:25.111Z,10.90
2023-03-31T06:02:53.098Z,10.90
2023-03-31T06:05:22.875Z,10.90
2023-03-31T06:07:51.470Z,10.90
2023-03-31T06:10:19.374Z,10.90
2023-03-31T06:12:47.700Z,10.90
2023-03-31T06:15:15.871Z,10.90
2023-03-31T06:17:45.203Z,10.90
2023-03-31T06:20:27.297Z,10.90
2023-03-31T06:22:56.096Z,11.00
2023-03-31T06:25:24.000Z,11.10
2023-03-31T06:27:51.850Z,11.20
2023-03-31T06:30:19.992Z,11.20
2023-03-31T06:32:49.294Z,11.20
2023-03-31T06:35:18.094Z,11.30
2023-03-31T06:37:45.948Z,11.30
2023-03-31T06:40:14.227Z,11.30
2023-03-31T06:42:42.061Z,11.30
2023-03-31T06:45:10.741Z,11.40
2023-03-31T06:47:38.831Z,11.50
2023-03-31T06:50:10.457Z,11.60
2023-03-31T06:52:40.904Z,11.70
2023-03-31T06:55:09.817Z,11.70
2023-03-31T06:57:38.124Z,11.70
2023-03-31T07:00:07.847Z,11.80
2023-03-31T07:02:37.171Z,11.80
2023-03-31T07:05:05.533Z,11.70
2023-03-31T07:07:36.365Z,11.60
2023-03-31T07:10:04.571Z,11.60
2023-03-31T07:12:33.972Z,11.70
2023-03-31T07:15:01.900Z,11.70
2023-03-31T07:17:30.015Z,11.60
2023-03-31T07:19:57.896Z,11.70
2023-03-31T07:22:26.152Z,11.60
2023-03-31T07:24:55.482Z,11.60
2023-03-31T07:27:26.094Z,11.60
2023-03-31T07:29:55.040Z,11.60
2023-03-31T07:32:23.474Z,11.60
2023-03-31T07:34:51.685Z,11.60
2023-03-31T07:37:19.609Z,11.70
2023-03-31T07:39:47.434Z,11.80
2023-03-31T07:42:16.561Z,12.00
2023-03-31T07:44:44.526Z,12.10
2023-03-31T07:47:12.339Z,12.20
2023-03-31T07:49:40.241Z,12.40
2023-03-31T07:52:08.083Z,12.40
2023-03-31T07:54:36.125Z,12.40
2023-03-31T07:57:04.928Z,12.30
2023-03-31T07:59:34.322Z,12.40
2023-03-31T08:02:02.353Z,12.50
2023-03-31T08:04:30.505Z,12.60
2023-03-31T08:06:58.615Z,12.70
2023-03-31T08:09:27.124Z,12.80
2023-03-31T08:11:55.024Z,12.70
2023-03-31T08:14:34.146Z,12.70
2023-03-31T08:17:09.576Z,12.60
2023-03-31T08:19:38.151Z,12.70
2023-03-31T08:22:08.518Z,12.70
2023-03-31T08:24:36.369Z,12.60
2023-03-31T08:27:04.457Z,12.60
2023-03-31T08:29:32.617Z,12.60
2023-03-31T08:32:00.518Z,12.60
2023-03-31T08:34:29.938Z,12.60
2023-03-31T08:36:57.730Z,12.50
2023-03-31T08:39:25.750Z,12.50
2023-03-31T08:42:01.130Z,12.50
2023-03-31T08:44:36.634Z,12.50
2023-03-31T08:47:07.990Z,12.40
2023-03-31T08:49:42.357Z,12.40
2023-03-31T08:52:15.571Z,12.40
2023-03-31T08:54:49.246Z,12.40
2023-03-31T08:57:21.572Z,12.30
2023-03-31T08:59:50.991Z,12.30
2023-03-31T09:02:24.515Z,12.20
2023-03-31T09:05:11.810Z,12.20
2023-03-31T09:07:49.831Z,12.20
2023-03-31T09:10:32.217Z,12.20
2023-03-31T09:13:07.875Z,12.30
2023-03-31T09:15:41.590Z,12.40
2023-03-31T09:18:19.524Z,12.40
2023-03-31T09:20:52.564Z,12.40
2023-03-31T09:23:27.244Z,12.50
2023-03-31T09:25:57.650Z,12.60
2023-03-31T09:28:31.520Z,12.50
2023-03-31T09:31:00.817Z,12.50
2023-03-31T09:33:32.057Z,12.50
2023-03-31T09:36:02.981Z,12.60
2023-03-31T09:38:31.362Z,12.50
2023-03-31T09:41:00.008Z,12.30
2023-03-31T09:43:29.967Z,12.20
2023-03-31T09:46:09.354Z,12.30
2023-03-31T09:48:53.028Z,12.30
2023-03-31T09:51:29.757Z,12.30
2023-03-31T09:54:03.588Z,12.20
2023-03-31T09:56:49.105Z,12.30
2023-03-31T09:59:19.772Z,12.40
2023-03-31T10:01:50.370Z,12.50
2023-03-31T10:04:23.348Z,12.50
2023-03-31T10:06:53.757Z,12.60
2023-03-31T10:09:23.183Z,12.60
2023-03-31T10:11:57.526Z,12.70
2023-03-31T10:14:39.308Z,12.70
2023-03-31T10:17:07.650Z,12.60
2023-03-31T10:19:37.680Z,12.60
2023-03-31T10:22:15.456Z,12.60
2023-03-31T10:24:44.933Z,12.70
2023-03-31T10:27:22.787Z,12.80
2023-03-31T10:29:53.904Z,12.90
2023-03-31T10:32:28.624Z,12.80
2023-03-31T10:34:58.011Z,12.90
2023-03-31T10:37:29.387Z,12.90
2023-03-31T10:40:05.766Z,12.90
2023-03-31T10:42:34.055Z,13.10
2023-03-31T10:45:36.614Z,13.20
2023-03-31T10:48:17.712Z,13.20
2023-03-31T10:50:45.986Z,13.30
2023-03-31T10:53:16.899Z,13.50
2023-03-31T10:55:55.453Z,13.60
2023-03-31T10:58:35.138Z,13.50
2023-03-31T11:01:15.326Z,13.40
2023-03-31T11:03:56.793Z,13.40
2023-03-31T11:06:31.068Z,13.40
2023-03-31T11:09:13.622Z,13.30
2023-03-31T11:12:00.285Z,13.30
2023-03-31T11:14:41.688Z,13.30
2023-03-31T11:17:23.241Z,13.30
2023-03-31T11:20:01.260Z,13.40
2023-03-31T11:22:35.777Z,13.60
2023-03-31T11:25:17.709Z,13.60
2023-03-31T11:28:07.034Z,13.60
2023-03-31T11:30:39.686Z,13.50
2023-03-31T11:33:37.145Z,13.60
2023-03-31T11:36:18.915Z,13.80
2023-03-31T11:39:00.068Z,13.80
2023-03-31T11:41:37.989Z,13.80
2023-03-31T11:44:07.471Z,13.90
2023-03-31T11:46:42.659Z,13.70
2023-03-31T11:49:18.678Z,13.70
2023-03-31T11:51:52.945Z,13.80
2023-03-31T11:54:26.771Z,13.80
2023-03-31T11:56:57.260Z,13.70
2023-03-31T11:59:29.906Z,13.70
2023-03-31T12:02:05.848Z,13.60
2023-03-31T12:04:37.973Z,13.70
2023-03-31T12:07:24.232Z,13.60
2023-03-31T12:10:03.202Z,13.50
2023-03-31T12:12:35.928Z,13.50
2023-03-31T12:15:13.925Z,13.50
2023-03-31T12:17:44.504Z,13.50
2023-03-31T12:20:18.757Z,13.60
2023-03-31T12:22:49.077Z,13.60
2023-03-31T12:25:22.821Z,13.60
2023-03-31T12:27:54.529Z,13.60
2023-03-31T12:30:31.555Z,13.70
2023-03-31T12:33:06.437Z,13.80
2023-03-31T12:35:46.480Z,13.90
2023-03-31T12:38:29.805Z,13.90
2023-03-31T12:41:04.999Z,13.80
2023-03-31T12:43:56.410Z,13.80
2023-03-31T12:46:44.718Z,13.70
2023-03-31T12:49:23.895Z,13.60
2023-03-31T12:52:00.892Z,13.50
2023-03-31T12:54:40.984Z,13.50
2023-03-31T12:57:20.379Z,13.50
2023-03-31T13:00:24.716Z,13.50
2023-03-31T13:03:33.848Z,13.50
2023-03-31T13:06:01.818Z,13.40
2023-03-31T13:08:52.669Z,13.30
2023-03-31T13:11:22.860Z,13.30
2023-03-31T13:14:01.084Z,13.30
2023-03-31T13:16:31.170Z,13.20
2023-03-31T13:18:59.414Z,13.20
2023-03-31T13:21:27.940Z,13.10
2023-03-31T13:24:01.282Z,13.00
2023-03-31T13:26:47.290Z,13.00
2023-03-31T13:29:25.164Z,13.00
2023-03-31T13:32:26.235Z,13.00
2023-03-31T13:35:00.417Z,13.00
2023-03-31T13:37:54.410Z,13.00
2023-03-31T13:41:04.596Z,13.10
2023-03-31T13:43:53.725Z,13.10
2023-03-31T13:47:00.424Z,13.20
2023-03-31T13:49:54.133Z,13.30
2023-03-31T13:52:37.637Z,13.50
2023-03-31T13:55:35.720Z,13.50
2023-03-31T13:58:35.479Z,13.70
2023-03-31T14:01:37.907Z,13.90
2023-03-31T14:04:26.253Z,14.10
2023-03-31T14:07:00.142Z,14.20
2023-03-31T14:09:32.602Z,14.40
2023-03-31T14:12:00.779Z,14.40
2023-03-31T14:14:29.827Z,14.20
2023-03-31T14:17:01.093Z,14.20
2023-03-31T14:19:57.528Z,14.10
2023-03-31T14:22:40.669Z,14.20
2023-03-31T14:25:17.142Z,14.10
2023-03-31T14:27:58.361Z,14.10
2023-03-31T14:30:38.479Z,14.00
2023-03-31T14:33:19.863Z,13.90
2023-03-31T14:35:57.867Z,13.90
2023-03-31T14:38:29.940Z,14.00
2023-03-31T14:41:00.917Z,13.90
2023-03-31T14:43:33.441Z,13.80
2023-03-31T14:46:02.810Z,13.80
2023-03-31T14:48:34.348Z,13.80
2023-03-31T14:51:04.254Z,13.80
2023-03-31T14:53:36.934Z,13.70
2023-03-31T14:56:08.395Z,13.70
2023-03-31T14:58:39.482Z,13.70
2023-03-31T15:01:09.800Z,13.60
2023-03-31T15:03:41.543Z,13.60
2023-03-31T15:06:11.971Z,13.70
2023-03-31T15:08:42.127Z,13.80
2023-03-31T15:11:17.146Z,13.90
2023-03-31T15:14:03.582Z,13.90
2023-03-31T15:16:37.754Z,13.90
2023-03-31T15:19:12.311Z,13.90
2023-03-31T15:21:40.830Z,13.90
2023-03-31T15:24:13.178Z,13.80
2023-03-31T15:26:46.772Z,13.80
2023-03-31T15:29:21.660Z,13.80
2023-03-31T15:31:50.080Z,13.80
2023-03-31T15:34:24.640Z,14.00
2023-03-31T15:36:55.700Z,14.10
2023-03-31T15:39:27.473Z,14.20
2023-03-31T15:41:56.513Z,14.10
2023-03-31T15:44:37.665Z,14.00
2023-03-31T15:47:14.793Z,14.00
2023-03-31T15:49:50.689Z,13.90
2023-03-31T15:52:28.355Z,13.90
2023-03-31T15:54:58.344Z,13.90
2023-03-31T15:57:34.304Z,14.10
2023-03-31T16:00:07.021Z,14.30
2023-03-31T16:02:46.334Z,14.30
2023-03-31T16:05:32.400Z,14.30
2023-03-31T16:08:04.008Z,14.40
2023-03-31T16:10:35.235Z,14.40
2023-03-31T16:13:07.556Z,14.50
2023-03-31T16:15:38.083Z,14.60
2023-03-31T16:18:10.650Z,14.70
2023-03-31T16:20:43.023Z,14.70
2023-03-31T16:23:17.144Z,14.80
2023-03-31T16:25:47.330Z,14.80
2023-03-31T16:28:19.020Z,14.80
2023-03-31T16:30:48.307Z,14.70
2023-03-31T16:33:18.629Z,14.70
2023-03-31T16:35:50.932Z,14.70
2023-03-31T16:38:19.340Z,14.50
2023-03-31T16:40:50.442Z,14.40
2023-03-31T16:43:20.614Z,14.30
2023-03-31T16:45:49.832Z,14.30
2023-03-31T16:48:18.892Z,14.20
2023-03-31T16:50:49.257Z,14.00
2023-03-31T16:53:19.697Z,13.90
2023-03-31T16:55:49.517Z,13.80
2023-03-31T16:58:17.882Z,13.70
2023-03-31T17:00:46.512Z,13.50
2023-03-31T17:03:15.662Z,13.60
2023-03-31T17:05:45.357Z,13.60
2023-03-31T17:08:15.052Z,13.50
2023-03-31T17:10:43.541Z,13.40
2023-03-31T17:13:12.807Z,13.30
2023-03-31T17:15:40.691Z,13.20
2023-03-31T17:18:08.772Z,13.20
2023-03-31T17:20:37.023Z,13.10
2023-03-31T17:23:05.108Z,13.10
2023-03-31T17:25:34.400Z,13.00
2023-03-31T17:28:02.680Z,13.00
2023-03-31T17:30:34.107Z,13.00
2023-03-31T17:33:02.026Z,13.00
2023-03-31T17:35:30.561Z,12.90
2023-03-31T17:37:59.569Z,12.90
2023-03-31T17:40:28.108Z,12.80
2023-03-31T17:42:56.130Z,12.80
2023-03-31T17:45:24.000Z,12.80
2023-03-31T17:47:53.258Z,12.70
2023-03-31T17:50:21.175Z,12.70
2023-03-31T17:52:49.073Z,12.60
2023-03-31T17:55:17.175Z,12.60
2023-03-31T17:57:45.045Z,12.60
2023-03-31T18:00:15.973Z,12.60
2023-03-31T18:02:44.549Z,12.60
2023-03-31T18:05:15.151Z,12.60
2023-03-31T18:07:44.271Z,12.60
2023-03-31T18:10:12.180Z,12.60
2023-03-31T18:12:40.089Z,12.50
2023-03-31T18:15:10.782Z,12.50
2023-03-31T18:17:38.876Z,12.60
2023-03-31T18:20:07.887Z,12.60
2023-03-31T18:22:37.073Z,12.80
2023-03-31T18:25:05.413Z,12.90
2023-03-31T18:27:33.393Z,12.80
2023-03-31T18:30:01.540Z,12.80
2023-03-31T18:32:29.468Z,12.70
2023-03-31T18:34:58.132Z,12.70
2023-03-31T18:37:25.987Z,12.60
2023-03-31T18:39:55.806Z,12.60
2023-03-31T18:42:25.623Z,12.60
2023-03-31T18:44:53.604Z,12.50
2023-03-31T18:47:22.100Z,12.50
2023-03-31T18:49:53.634Z,12.50
2023-03-31T18:52:22.058Z,12.50
2023-03-31T18:54:51.294Z,12.50
2023-03-31T18:57:20.861Z,12.40
2023-03-31T18:59:48.721Z,12.40
2023-03-31T19:02:18.055Z,12.40
2023-03-31T19:04:46.822Z,12.40
2023-03-31T19:07:15.041Z,12.40
2023-03-31T19:09:42.873Z,12.40
2023-03-31T19:12:11.746Z,12.30
2023-03-31T19:14:41.308Z,12.40
2023-03-31T19:17:09.250Z,12.30
2023-03-31T19:19:37.088Z,12.30
2023-03-31T19:22:05.004Z,12.30
2023-03-31T19:24:32.817Z,12.20
2023-03-31T19:27:00.674Z,12.20
2023-03-31T19:29:30.199Z,12.10
2023-03-31T19:31:59.456Z,12.10
2023-03-31T19:34:27.399Z,12.10
2023-03-31T19:36:55.303Z,12.10
2023-03-31T19:39:25.277Z,12.00
2023-03-31T19:41:53.127Z,12.00
2023-03-31T19:44:21.274Z,12.00
2023-03-31T19:46:49.074Z,11.90
2023-03-31T19:49:18.782Z,12.00
2023-03-31T19:51:46.677Z,11.90
2023-03-31T19:54:14.525Z,11.90
2023-03-31T19:56:42.433Z,11.90
2023-03-31T19:59:10.563Z,11.90
2023-03-31T20:01:38.656Z,11.80
2023-03-31T20:04:06.696Z,11.80
2023-03-31T20:06:36.935Z,11.80
2023-03-31T20:09:06.252Z,11.90
2023-03-31T20:11:34.457Z,11.80
2023-03-31T20:14:03.340Z,11.80
2023-03-31T20:16:32.300Z,11.80
2023-03-31T20:19:03.958Z,11.80
2023-03-31T20:21:33.508Z,11.80
2023-03-31T20:24:02.826Z,11.80
2023-03-31T20:26:32.431Z,11.80
2023-03-31T20:29:02.776Z,11.80
2023-03-31T20:31:32.466Z,11.80
2023-03-31T20:34:00.611Z,11.80
2023-03-31T20:36:29.676Z,11.80
2023-03-31T20:38:57.709Z,11.80
2023-03-31T20:41:29.628Z,11.80
2023-03-31T20:43:58.089Z,11.80
2023-03-31T20:46:26.014Z,11.80
2023-03-31T20:48:56.456Z,11.80
2023-03-31T20:51:27.449Z,11.80
2023-03-31T20:53:56.438Z,11.80
2023-03-31T20:56:28.096Z,11.80
2023-03-31T20:58:58.774Z,11.80
2023-03-31T21:01:27.819Z,11.80
2023-03-31T21:03:58.933Z,11.70
2023-03-31T21:06:28.560Z,11.80
2023-03-31T21:08:57.714Z,11.70
2023-03-31T21:11:27.525Z,11.70
2023-03-31T21:13:55.645Z,11.70
2023-03-31T21:16:25.208Z,11.80
2023-03-31T21:18:54.724Z,11.70
2023-03-31T21:21:24.445Z,11.70
2023-03-31T21:23:52.556Z,11.70
2023-03-31T21:26:21.753Z,11.70
2023-03-31T21:28:54.039Z,11.70
2023-03-31T21:31:23.934Z,11.70
2023-03-31T21:33:53.099Z,11.70
2023-03-31T21:36:23.124Z,11.70
2023-03-31T21:38:53.352Z,11.70
2023-03-31T21:41:23.910Z,11.70
2023-03-31T21:43:53.738Z,11.70
2023-03-31T21:46:23.914Z,11.70
2023-03-31T21:48:52.031Z,11.70
2023-03-31T21:51:21.929Z,11.60
2023-03-31T21:53:51.367Z,11.70
2023-03-31T21:56:19.286Z,11.70
2023-03-31T21:58:47.335Z,11.60
2023-03-31T22:01:16.608Z,11.60
2023-03-31T22:03:44.876Z,11.60
2023-03-31T22:06:13.157Z,11.60
2023-03-31T22:08:41.735Z,11.60
2023-03-31T22:11:11.318Z,11.60
2023-03-31T22:13:39.597Z,11.60
2023-03-31T22:16:17.936Z,11.60
2023-03-31T22:18:46.979Z,11.60
2023-03-31T22:21:18.057Z,11.60
2023-03-31T22:23:46.298Z,11.60
2023-03-31T22:26:14.667Z,11.60
2023-03-31T22:28:42.604Z,11.60
2023-03-31T22:31:10.549Z,11.60
2023-03-31T22:33:39.808Z,11.60
2023-03-31T22:36:08.328Z,11.60
2023-03-31T22:38:36.375Z,11.60
2023-03-31T22:41:04.706Z,11.60
2023-03-31T22:43:33.588Z,11.60
2023-03-31T22:46:04.241Z,11.60
2023-03-31T22:48:32.143Z,11.50
2023-03-31T22:51:04.387Z,11.50
2023-03-31T22:53:32.977Z,11.50
2023-03-31T22:56:06.100Z,11.60
2023-03-31T22:58:34.859Z,11.50
2023-03-31T23:01:03.085Z,11.60
2023-03-31T23:03:31.196Z,11.60
2023-03-31T23:06:04.933Z,11.60
2023-03-31T23:08:33.326Z,11.60
2023-03-31T23:11:01.764Z,11.50
2023-03-31T23:13:30.690Z,11.50
2023-03-31T23:16:04.333Z,11.50
2023-03-31T23:18:32.369Z,11.60
2023-03-31T23:21:01.124Z,11.50
2023-03-31T23:23:30.493Z,11.60
2023-03-31T23:26:01.659Z,11.60
2023-03-31T23:28:29.665Z,11.50
2023-03-31T23:30:57.825Z,11.50
2023-03-31T23:33:26.198Z,11.50
2023-03-31T23:35:58.858Z,11.50
2023-03-31T23:38:27.594Z,11.50
2023-03-31T23:40:56.962Z,11.50
2023-03-31T23:43:25.165Z,11.50
2023-03-31T23:45:53.182Z,11.40
2023-03-31T23:48:21.980Z,11.40
2023-03-31T23:50:49.784Z,11.40
2023-03-31T23:53:17.709Z,11.40
2023-03-31T23:55:53.021Z,11.50
2023-03-31T23:58:22.226Z,11.40
